sensor_id;sensor_type;location;lat;lon;timestamp;P1;durP1;ratioP1;P2;durP2;ratioP2
47113;SDS011;32867;51.556;6.832;2023-03-05T00:02:44;4.80;;;1.75;;
47113;SDS011;32867;51.556;6.832;2023-03-05T00:07:45;8.18;;;2.20;;
47113;SDS011;32867;51.556;6.832;2023-03-05T00:12:46;6.10;;;2.15;;
47113;SDS011;32867;51.556;6.832;2023-03-05T00:17:47;6.32;;;2.00;;
47113;SDS011;32867;51.556;6.832;2023-03-05T00:22:47;8.45;;;2.88;;
47113;SDS011;32867;51.556;6.832;2023-03-05T00:27:48;8.75;;;2.45;;
47113;SDS011;32867;51.556;6.832;2023-03-05T00:32:48;6.07;;;2.08;;
47113;SDS011;32867;51.556;6.832;2023-03-05T00:37:49;7.70;;;2.17;;
47113;SDS011;32867;51.556;6.832;2023-03-05T00:42:50;8.10;;;2.15;;
47113;SDS011;32867;51.556;6.832;2023-03-05T00:47:50;5.68;;;1.77;;
47113;SDS011;32867;51.556;6.832;2023-03-05T00:52:51;7.80;;;2.00;;
47113;SDS011;32867;51.556;6.832;2023-03-05T00:57:52;9.38;;;2.40;;
47113;SDS011;32867;51.556;6.832;2023-03-05T01:02:53;7.78;;;1.60;;
47113;SDS011;32867;51.556;6.832;2023-03-05T01:07:55;6.60;;;1.92;;
47113;SDS011;32867;51.556;6.832;2023-03-05T01:12:56;5.85;;;2.05;;
47113;SDS011;32867;51.556;6.832;2023-03-05T01:17:57;4.03;;;1.38;;
47113;SDS011;32867;51.556;6.832;2023-03-05T01:22:57;4.78;;;1.73;;
47113;SDS011;32867;51.556;6.832;2023-03-05T01:27:58;4.95;;;1.70;;
47113;SDS011;32867;51.556;6.832;2023-03-05T01:32:59;4.70;;;1.58;;
47113;SDS011;32867;51.556;6.832;2023-03-05T01:37:59;3.97;;;1.52;;
47113;SDS011;32867;51.556;6.832;2023-03-05T01:43:22;4.80;;;1.65;;
47113;SDS011;32867;51.556;6.832;2023-03-05T01:48:23;4.88;;;1.70;;
47113;SDS011;32867;51.556;6.832;2023-03-05T01:53:24;9.70;;;2.67;;
47113;SDS011;32867;51.556;6.832;2023-03-05T01:58:24;7.55;;;2.28;;
47113;SDS011;32867;51.556;6.832;2023-03-05T02:03:25;8.40;;;3.10;;
47113;SDS011;32867;51.556;6.832;2023-03-05T02:08:26;10.40;;;3.15;;
47113;SDS011;32867;51.556;6.832;2023-03-05T02:13:31;8.18;;;3.28;;
47113;SDS011;32867;51.556;6.832;2023-03-05T02:18:34;8.60;;;2.33;;
47113;SDS011;32867;51.556;6.832;2023-03-05T02:23:36;6.28;;;2.60;;
47113;SDS011;32867;51.556;6.832;2023-03-05T02:28:51;9.30;;;2.50;;
47113;SDS011;32867;51.556;6.832;2023-03-05T02:33:56;6.55;;;2.00;;
47113;SDS011;32867;51.556;6.832;2023-03-05T02:38:58;9.95;;;2.88;;
47113;SDS011;32867;51.556;6.832;2023-03-05T02:43:59;6.90;;;2.13;;
47113;SDS011;32867;51.556;6.832;2023-03-05T02:49:00;6.65;;;2.40;;
47113;SDS011;32867;51.556;6.832;2023-03-05T02:54:01;8.15;;;2.67;;
47113;SDS011;32867;51.556;6.832;2023-03-05T02:59:03;7.07;;;2.30;;
47113;SDS011;32867;51.556;6.832;2023-03-05T03:04:04;8.07;;;2.50;;
47113;SDS011;32867;51.556;6.832;2023-03-05T03:09:04;9.05;;;2.38;;
47113;SDS011;32867;51.556;6.832;2023-03-05T03:14:05;7.68;;;2.22;;
47113;SDS011;32867;51.556;6.832;2023-03-05T03:19:05;9.07;;;2.30;;
47113;SDS011;32867;51.556;6.832;2023-03-05T03:24:06;10.65;;;2.58;;
47113;SDS011;32867;51.556;6.832;2023-03-05T03:29:07;7.22;;;2.33;;
47113;SDS011;32867;51.556;6.832;2023-03-05T03:34:07;9.20;;;2.63;;
47113;SDS011;32867;51.556;6.832;2023-03-05T03:39:08;8.20;;;2.13;;
47113;SDS011;32867;51.556;6.832;2023-03-05T03:44:09;5.97;;;2.10;;
47113;SDS011;32867;51.556;6.832;2023-03-05T03:49:23;6.13;;;2.83;;
47113;SDS011;32867;51.556;6.832;2023-03-05T03:54:25;7.78;;;2.55;;
47113;SDS011;32867;51.556;6.832;2023-03-05T03:59:26;3.78;;;1.80;;
47113;SDS011;32867;51.556;6.832;2023-03-05T04:04:26;4.75;;;1.38;;
47113;SDS011;32867;51.556;6.832;2023-03-05T04:09:29;4.95;;;1.52;;
47113;SDS011;32867;51.556;6.832;2023-03-05T04:14:29;3.35;;;1.27;;
47113;SDS011;32867;51.556;6.832;2023-03-05T04:19:30;2.60;;;1.30;;
47113;SDS011;32867;51.556;6.832;2023-03-05T04:24:30;5.22;;;1.70;;
47113;SDS011;32867;51.556;6.832;2023-03-05T04:29:31;4.22;;;1.50;;
47113;SDS011;32867;51.556;6.832;2023-03-05T04:34:33;4.43;;;1.60;;
47113;SDS011;32867;51.556;6.832;2023-03-05T04:39:35;4.80;;;1.60;;
47113;SDS011;32867;51.556;6.832;2023-03-05T04:44:36;5.20;;;1.65;;
47113;SDS011;32867;51.556;6.832;2023-03-05T04:49:38;4.13;;;1.70;;
47113;SDS011;32867;51.556;6.832;2023-03-05T04:54:38;5.35;;;1.90;;
47113;SDS011;32867;51.556;6.832;2023-03-05T04:59:39;7.22;;;1.80;;
47113;SDS011;32867;51.556;6.832;2023-03-05T05:04:40;4.20;;;1.90;;
47113;SDS011;32867;51.556;6.832;2023-03-05T05:09:44;8.00;;;2.28;;
47113;SDS011;32867;51.556;6.832;2023-03-05T05:14:44;6.47;;;2.65;;
47113;SDS011;32867;51.556;6.832;2023-03-05T05:19:45;5.13;;;2.20;;
47113;SDS011;32867;51.556;6.832;2023-03-05T05:24:45;6.13;;;2.05;;
47113;SDS011;32867;51.556;6.832;2023-03-05T05:29:46;9.05;;;2.60;;
47113;SDS011;32867;51.556;6.832;2023-03-05T05:34:53;7.55;;;2.20;;
47113;SDS011;32867;51.556;6.832;2023-03-05T05:39:57;6.35;;;2.33;;
47113;SDS011;32867;51.556;6.832;2023-03-05T05:44:58;5.43;;;2.15;;
47113;SDS011;32867;51.556;6.832;2023-03-05T05:49:58;5.82;;;2.70;;
47113;SDS011;32867;51.556;6.832;2023-03-05T05:54:59;8.23;;;2.42;;
47113;SDS011;32867;51.556;6.832;2023-03-05T06:00:00;8.02;;;2.60;;
47113;SDS011;32867;51.556;6.832;2023-03-05T06:05:01;5.82;;;2.65;;
47113;SDS011;32867;51.556;6.832;2023-03-05T06:10:02;4.95;;;1.92;;
47113;SDS011;32867;51.556;6.832;2023-03-05T06:15:03;9.30;;;2.80;;
47113;SDS011;32867;51.556;6.832;2023-03-05T06:20:04;7.43;;;2.30;;
47113;SDS011;32867;51.556;6.832;2023-03-05T06:25:06;6.28;;;2.40;;
47113;SDS011;32867;51.556;6.832;2023-03-05T06:30:08;8.60;;;2.55;;
47113;SDS011;32867;51.556;6.832;2023-03-05T06:35:10;10.65;;;2.65;;
47113;SDS011;32867;51.556;6.832;2023-03-05T06:40:11;7.38;;;2.40;;
47113;SDS011;32867;51.556;6.832;2023-03-05T06:45:12;7.90;;;2.30;;
47113;SDS011;32867;51.556;6.832;2023-03-05T06:50:13;5.68;;;2.60;;
47113;SDS011;32867;51.556;6.832;2023-03-05T06:55:14;5.30;;;2.35;;
47113;SDS011;32867;51.556;6.832;2023-03-05T07:00:14;10.05;;;3.30;;
47113;SDS011;32867;51.556;6.832;2023-03-05T07:05:15;12.27;;;2.85;;
47113;SDS011;32867;51.556;6.832;2023-03-05T07:10:16;10.20;;;2.95;;
47113;SDS011;32867;51.556;6.832;2023-03-05T07:15:17;9.48;;;3.03;;
47113;SDS011;32867;51.556;6.832;2023-03-05T07:20:17;10.60;;;3.33;;
47113;SDS011;32867;51.556;6.832;2023-03-05T07:25:18;7.53;;;3.25;;
47113;SDS011;32867;51.556;6.832;2023-03-05T07:30:20;9.50;;;2.90;;
47113;SDS011;32867;51.556;6.832;2023-03-05T07:35:21;8.50;;;3.03;;
47113;SDS011;32867;51.556;6.832;2023-03-05T07:40:23;6.78;;;2.50;;
47113;SDS011;32867;51.556;6.832;2023-03-05T07:45:24;11.02;;;3.00;;
47113;SDS011;32867;51.556;6.832;2023-03-05T07:50:24;7.30;;;2.80;;
47113;SDS011;32867;51.556;6.832;2023-03-05T07:55:25;5.07;;;2.13;;
47113;SDS011;32867;51.556;6.832;2023-03-05T08:00:26;5.07;;;2.58;;
47113;SDS011;32867;51.556;6.832;2023-03-05T08:05:26;7.95;;;2.58;;
47113;SDS011;32867;51.556;6.832;2023-03-05T08:10:27;5.18;;;2.00;;
47113;SDS011;32867;51.556;6.832;2023-03-05T08:15:28;7.20;;;2.47;;
47113;SDS011;32867;51.556;6.832;2023-03-05T08:20:33;6.10;;;3.08;;
47113;SDS011;32867;51.556;6.832;2023-03-05T08:25:34;5.97;;;2.60;;
47113;SDS011;32867;51.556;6.832;2023-03-05T08:30:35;7.95;;;3.17;;
47113;SDS011;32867;51.556;6.832;2023-03-05T08:35:36;9.95;;;2.95;;
47113;SDS011;32867;51.556;6.832;2023-03-05T08:40:36;17.65;;;3.50;;
47113;SDS011;32867;51.556;6.832;2023-03-05T08:45:37;6.93;;;3.20;;
47113;SDS011;32867;51.556;6.832;2023-03-05T08:50:39;8.15;;;3.45;;
47113;SDS011;32867;51.556;6.832;2023-03-05T08:55:39;10.48;;;3.47;;
47113;SDS011;32867;51.556;6.832;2023-03-05T09:00:40;8.70;;;3.72;;
47113;SDS011;32867;51.556;6.832;2023-03-05T09:05:41;8.32;;;3.40;;
47113;SDS011;32867;51.556;6.832;2023-03-05T09:10:42;8.68;;;4.32;;
47113;SDS011;32867;51.556;6.832;2023-03-05T09:15:43;8.10;;;4.15;;
47113;SDS011;32867;51.556;6.832;2023-03-05T09:20:44;9.38;;;4.22;;
47113;SDS011;32867;51.556;6.832;2023-03-05T09:25:45;7.47;;;3.92;;
47113;SDS011;32867;51.556;6.832;2023-03-05T09:30:45;6.95;;;4.10;;
47113;SDS011;32867;51.556;6.832;2023-03-05T09:35:46;7.93;;;4.05;;
47113;SDS011;32867;51.556;6.832;2023-03-05T09:40:50;9.63;;;4.40;;
47113;SDS011;32867;51.556;6.832;2023-03-05T09:51:44;6.07;;;3.90;;
47113;SDS011;32867;51.556;6.832;2023-03-05T09:56:49;8.30;;;3.40;;
47113;SDS011;32867;51.556;6.832;2023-03-05T10:07:20;6.50;;;3.20;;
47113;SDS011;32867;51.556;6.832;2023-03-05T10:12:39;6.90;;;3.38;;
47113;SDS011;32867;51.556;6.832;2023-03-05T10:28:04;4.10;;;2.00;;
47113;SDS011;32867;51.556;6.832;2023-03-05T10:49:30;2.63;;;1.60;;
47113;SDS011;32867;51.556;6.832;2023-03-05T10:54:35;4.95;;;2.13;;
47113;SDS011;32867;51.556;6.832;2023-03-05T10:59:51;3.53;;;2.20;;
47113;SDS011;32867;51.556;6.832;2023-03-05T11:04:53;4.90;;;2.33;;
47113;SDS011;32867;51.556;6.832;2023-03-05T11:25:26;7.47;;;2.80;;
47113;SDS011;32867;51.556;6.832;2023-03-05T11:30:28;5.32;;;2.65;;
47113;SDS011;32867;51.556;6.832;2023-03-05T11:35:32;4.68;;;2.40;;
47113;SDS011;32867;51.556;6.832;2023-03-05T11:40:37;7.17;;;2.43;;
47113;SDS011;32867;51.556;6.832;2023-03-05T11:45:38;7.03;;;3.03;;
47113;SDS011;32867;51.556;6.832;2023-03-05T11:50:41;4.95;;;2.60;;
47113;SDS011;32867;51.556;6.832;2023-03-05T12:00:47;5.85;;;2.47;;
47113;SDS011;32867;51.556;6.832;2023-03-05T12:11:19;4.88;;;2.20;;
47113;SDS011;32867;51.556;6.832;2023-03-05T12:16:36;2.75;;;1.83;;
47113;SDS011;32867;51.556;6.832;2023-03-05T12:21:49;3.78;;;1.80;;
47113;SDS011;32867;51.556;6.832;2023-03-05T12:26:53;3.35;;;1.83;;
47113;SDS011;32867;51.556;6.832;2023-03-05T12:32:03;2.72;;;1.60;;
47113;SDS011;32867;51.556;6.832;2023-03-05T12:47:30;3.72;;;1.88;;
47113;SDS011;32867;51.556;6.832;2023-03-05T12:52:32;3.08;;;1.58;;
47113;SDS011;32867;51.556;6.832;2023-03-05T12:57:33;2.83;;;1.63;;
47113;SDS011;32867;51.556;6.832;2023-03-05T13:02:38;3.67;;;1.73;;
47113;SDS011;32867;51.556;6.832;2023-03-05T13:07:41;3.75;;;1.63;;
47113;SDS011;32867;51.556;6.832;2023-03-05T13:12:42;4.22;;;2.10;;
47113;SDS011;32867;51.556;6.832;2023-03-05T13:28:24;10.48;;;6.75;;
47113;SDS011;32867;51.556;6.832;2023-03-05T13:33:26;4.22;;;2.80;;
47113;SDS011;32867;51.556;6.832;2023-03-05T13:38:38;3.22;;;1.70;;
47113;SDS011;32867;51.556;6.832;2023-03-05T13:48:51;3.83;;;1.48;;
47113;SDS011;32867;51.556;6.832;2023-03-05T13:53:52;2.72;;;1.40;;
47113;SDS011;32867;51.556;6.832;2023-03-05T13:58:54;1.85;;;1.25;;
47113;SDS011;32867;51.556;6.832;2023-03-05T14:03:57;2.88;;;1.60;;
47113;SDS011;32867;51.556;6.832;2023-03-05T14:09:48;2.15;;;1.20;;
47113;SDS011;32867;51.556;6.832;2023-03-05T14:14:24;4.13;;;1.60;;
47113;SDS011;32867;51.556;6.832;2023-03-05T14:24:31;4.75;;;3.00;;
47113;SDS011;32867;51.556;6.832;2023-03-05T14:29:33;3.22;;;1.48;;
47113;SDS011;32867;51.556;6.832;2023-03-05T14:34:36;2.70;;;1.40;;
47113;SDS011;32867;51.556;6.832;2023-03-05T14:44:51;2.85;;;1.55;;
47113;SDS011;32867;51.556;6.832;2023-03-05T14:49:52;5.53;;;3.38;;
47113;SDS011;32867;51.556;6.832;2023-03-05T14:54:53;4.07;;;1.85;;
47113;SDS011;32867;51.556;6.832;2023-03-05T14:59:54;4.18;;;1.70;;
47113;SDS011;32867;51.556;6.832;2023-03-05T15:04:54;2.80;;;1.48;;
47113;SDS011;32867;51.556;6.832;2023-03-05T15:09:55;2.78;;;1.50;;
47113;SDS011;32867;51.556;6.832;2023-03-05T15:14:56;3.85;;;1.75;;
47113;SDS011;32867;51.556;6.832;2023-03-05T15:19:57;6.47;;;3.95;;
47113;SDS011;32867;51.556;6.832;2023-03-05T15:24:58;3.40;;;2.58;;
47113;SDS011;32867;51.556;6.832;2023-03-05T15:29:58;2.78;;;1.30;;
47113;SDS011;32867;51.556;6.832;2023-03-05T15:34:59;2.65;;;1.50;;
47113;SDS011;32867;51.556;6.832;2023-03-05T15:40:00;4.75;;;2.38;;
47113;SDS011;32867;51.556;6.832;2023-03-05T15:45:00;17.67;;;11.43;;
47113;SDS011;32867;51.556;6.832;2023-03-05T15:50:01;9.60;;;6.93;;
47113;SDS011;32867;51.556;6.832;2023-03-05T15:55:02;2.58;;;1.58;;
47113;SDS011;32867;51.556;6.832;2023-03-05T16:00:07;3.00;;;1.73;;
47113;SDS011;32867;51.556;6.832;2023-03-05T16:05:10;3.75;;;1.90;;
47113;SDS011;32867;51.556;6.832;2023-03-05T16:10:11;16.27;;;9.43;;
47113;SDS011;32867;51.556;6.832;2023-03-05T16:15:17;11.60;;;6.20;;
47113;SDS011;32867;51.556;6.832;2023-03-05T16:20:20;6.35;;;4.72;;
47113;SDS011;32867;51.556;6.832;2023-03-05T16:25:21;3.72;;;1.95;;
47113;SDS011;32867;51.556;6.832;2023-03-05T16:30:22;4.15;;;2.20;;
47113;SDS011;32867;51.556;6.832;2023-03-05T16:35:23;5.22;;;2.58;;
47113;SDS011;32867;51.556;6.832;2023-03-05T16:40:24;5.40;;;2.90;;
47113;SDS011;32867;51.556;6.832;2023-03-05T16:45:24;4.03;;;1.90;;
47113;SDS011;32867;51.556;6.832;2023-03-05T16:50:25;3.55;;;1.92;;
47113;SDS011;32867;51.556;6.832;2023-03-05T16:55:26;3.63;;;1.90;;
47113;SDS011;32867;51.556;6.832;2023-03-05T17:00:26;4.53;;;2.13;;
47113;SDS011;32867;51.556;6.832;2023-03-05T17:05:27;2.60;;;1.77;;
47113;SDS011;32867;51.556;6.832;2023-03-05T17:10:29;4.80;;;1.85;;
47113;SDS011;32867;51.556;6.832;2023-03-05T17:15:30;3.40;;;2.05;;
47113;SDS011;32867;51.556;6.832;2023-03-05T17:20:32;3.88;;;1.88;;
47113;SDS011;32867;51.556;6.832;2023-03-05T17:25:35;3.53;;;1.90;;
47113;SDS011;32867;51.556;6.832;2023-03-05T17:30:37;4.80;;;2.00;;
47113;SDS011;32867;51.556;6.832;2023-03-05T17:35:38;2.78;;;1.60;;
47113;SDS011;32867;51.556;6.832;2023-03-05T17:40:39;3.97;;;2.08;;
47113;SDS011;32867;51.556;6.832;2023-03-05T17:45:40;4.43;;;1.95;;
47113;SDS011;32867;51.556;6.832;2023-03-05T17:50:40;3.38;;;1.80;;
47113;SDS011;32867;51.556;6.832;2023-03-05T17:55:42;4.75;;;1.98;;
47113;SDS011;32867;51.556;6.832;2023-03-05T18:00:42;4.57;;;1.80;;
47113;SDS011;32867;51.556;6.832;2023-03-05T18:05:44;4.10;;;1.77;;
47113;SDS011;32867;51.556;6.832;2023-03-05T18:10:44;4.18;;;2.35;;
47113;SDS011;32867;51.556;6.832;2023-03-05T18:15:45;4.53;;;2.70;;
47113;SDS011;32867;51.556;6.832;2023-03-05T18:20:48;5.93;;;2.95;;
47113;SDS011;32867;51.556;6.832;2023-03-05T18:25:49;4.28;;;2.55;;
47113;SDS011;32867;51.556;6.832;2023-03-05T18:30:50;4.05;;;2.35;;
47113;SDS011;32867;51.556;6.832;2023-03-05T18:35:51;3.70;;;2.50;;
47113;SDS011;32867;51.556;6.832;2023-03-05T18:40:54;3.70;;;2.20;;
47113;SDS011;32867;51.556;6.832;2023-03-05T18:45:55;2.85;;;2.15;;
47113;SDS011;32867;51.556;6.832;2023-03-05T18:50:56;2.88;;;1.83;;
47113;SDS011;32867;51.556;6.832;2023-03-05T18:55:57;3.17;;;1.80;;
47113;SDS011;32867;51.556;6.832;2023-03-05T19:00:57;3.58;;;1.90;;
47113;SDS011;32867;51.556;6.832;2023-03-05T19:05:58;3.30;;;1.80;;
47113;SDS011;32867;51.556;6.832;2023-03-05T19:10:59;3.03;;;1.85;;
47113;SDS011;32867;51.556;6.832;2023-03-05T19:16:04;4.13;;;1.90;;
47113;SDS011;32867;51.556;6.832;2023-03-05T19:21:06;3.20;;;1.85;;
47113;SDS011;32867;51.556;6.832;2023-03-05T19:26:07;6.00;;;3.28;;
47113;SDS011;32867;51.556;6.832;2023-03-05T19:31:08;8.88;;;5.38;;
47113;SDS011;32867;51.556;6.832;2023-03-05T19:36:09;7.05;;;5.32;;
47113;SDS011;32867;51.556;6.832;2023-03-05T19:41:10;6.20;;;3.97;;
47113;SDS011;32867;51.556;6.832;2023-03-05T19:46:12;5.90;;;3.60;;
47113;SDS011;32867;51.556;6.832;2023-03-05T19:51:15;5.45;;;3.47;;
47113;SDS011;32867;51.556;6.832;2023-03-05T19:56:18;5.25;;;3.65;;
47113;SDS011;32867;51.556;6.832;2023-03-05T20:01:20;7.53;;;4.20;;
47113;SDS011;32867;51.556;6.832;2023-03-05T20:06:23;6.70;;;4.10;;
47113;SDS011;32867;51.556;6.832;2023-03-05T20:11:25;7.35;;;4.40;;
47113;SDS011;32867;51.556;6.832;2023-03-05T20:16:28;8.07;;;4.80;;
47113;SDS011;32867;51.556;6.832;2023-03-05T20:21:38;7.13;;;4.53;;
47113;SDS011;32867;51.556;6.832;2023-03-05T20:26:40;5.18;;;3.95;;
47113;SDS011;32867;51.556;6.832;2023-03-05T20:31:42;6.45;;;4.63;;
47113;SDS011;32867;51.556;6.832;2023-03-05T20:36:43;7.80;;;4.72;;
47113;SDS011;32867;51.556;6.832;2023-03-05T20:41:45;7.13;;;4.53;;
47113;SDS011;32867;51.556;6.832;2023-03-05T20:46:47;5.25;;;4.40;;
47113;SDS011;32867;51.556;6.832;2023-03-05T20:52:01;5.57;;;4.20;;
47113;SDS011;32867;51.556;6.832;2023-03-05T20:57:02;6.28;;;4.43;;
47113;SDS011;32867;51.556;6.832;2023-03-05T21:02:02;5.97;;;4.03;;
47113;SDS011;32867;51.556;6.832;2023-03-05T21:07:03;5.78;;;4.55;;
47113;SDS011;32867;51.556;6.832;2023-03-05T21:12:04;7.10;;;5.45;;
47113;SDS011;32867;51.556;6.832;2023-03-05T21:17:05;8.02;;;5.70;;
47113;SDS011;32867;51.556;6.832;2023-03-05T21:22:07;7.80;;;5.80;;
47113;SDS011;32867;51.556;6.832;2023-03-05T21:27:08;10.45;;;6.35;;
47113;SDS011;32867;51.556;6.832;2023-03-05T21:32:08;9.68;;;6.63;;
47113;SDS011;32867;51.556;6.832;2023-03-05T21:37:09;7.93;;;6.25;;
47113;SDS011;32867;51.556;6.832;2023-03-05T21:42:11;10.32;;;7.47;;
47113;SDS011;32867;51.556;6.832;2023-03-05T21:47:11;8.65;;;7.10;;
47113;SDS011;32867;51.556;6.832;2023-03-05T21:52:12;9.18;;;7.32;;
47113;SDS011;32867;51.556;6.832;2023-03-05T21:57:13;10.25;;;7.85;;
47113;SDS011;32867;51.556;6.832;2023-03-05T22:02:15;9.73;;;7.68;;
47113;SDS011;32867;51.556;6.832;2023-03-05T22:07:17;9.43;;;7.53;;
47113;SDS011;32867;51.556;6.832;2023-03-05T22:12:18;10.07;;;7.75;;
47113;SDS011;32867;51.556;6.832;2023-03-05T22:17:30;9.32;;;6.93;;
47113;SDS011;32867;51.556;6.832;2023-03-05T22:22:31;9.63;;;6.63;;
47113;SDS011;32867;51.556;6.832;2023-03-05T22:27:32;13.55;;;6.80;;
47113;SDS011;32867;51.556;6.832;2023-03-05T22:32:33;8.43;;;6.40;;
47113;SDS011;32867;51.556;6.832;2023-03-05T22:37:34;8.93;;;6.32;;
47113;SDS011;32867;51.556;6.832;2023-03-05T22:42:35;7.88;;;6.30;;
47113;SDS011;32867;51.556;6.832;2023-03-05T22:47:36;8.05;;;6.10;;
47113;SDS011;32867;51.556;6.832;2023-03-05T22:52:36;10.02;;;6.57;;
47113;SDS011;32867;51.556;6.832;2023-03-05T22:57:37;7.88;;;6.20;;
47113;SDS011;32867;51.556;6.832;2023-03-05T23:02:38;7.60;;;5.70;;
47113;SDS011;32867;51.556;6.832;2023-03-05T23:07:40;7.53;;;5.40;;
47113;SDS011;32867;51.556;6.832;2023-03-05T23:12:43;7.10;;;4.95;;
47113;SDS011;32867;51.556;6.832;2023-03-05T23:17:48;6.25;;;5.05;;
47113;SDS011;32867;51.556;6.832;2023-03-05T23:22:48;6.97;;;5.00;;
47113;SDS011;32867;51.556;6.832;2023-03-05T23:27:54;8.70;;;5.33;;
47113;SDS011;32867;51.556;6.832;2023-03-05T23:32:58;10.30;;;5.88;;
47113;SDS011;32867;51.556;6.832;2023-03-05T23:38:02;8.18;;;5.03;;
47113;SDS011;32867;51.556;6.832;2023-03-05T23:43:07;9.32;;;5.25;;
47113;SDS011;32867;51.556;6.832;2023-03-05T23:48:07;8.38;;;5.18;;
47113;SDS011;32867;51.556;6.832;2023-03-05T23:53:09;7.78;;;5.28;;
47113;SDS011;32867;51.556;6.832;2023-03-05T23:58:14;7.28;;;4.72;;
